Time;durP1;ratioP1;P1;durP2;ratioP2;P2;SDS_P1;SDS_P2;PMS_P1;PMS_P2;Temp;Humidity;BMP_temperature;BMP_pressure;BME280_temperature;BME280_humidity;BME280_pressure;Samples;Min_cycle;Max_cycle;Signal;HPM_P1;HPM_P2
2022/03/28 00:00:18;;;;;;;25.30;14.90;;;11.60;49.00;;;;;;5062322;28;20031;-80
2022/03/28 00:02:44;;;;;;;22.73;13.93;;;12.10;49.70;;;;;;5076443;28;20024;-79
2022/03/28 00:05:14;;;;;;;22.05;13.23;;;12.10;49.60;;;;;;5076310;28;20091;-80
2022/03/28 00:07:41;;;;;;;21.02;13.02;;;12.20;49.40;;;;;;5075465;28;20104;-80
2022/03/28 00:10:07;;;;;;;21.02;13.10;;;12.40;49.50;;;;;;5083279;28;20028;-79
2022/03/28 00:12:34;;;;;;;24.15;13.10;;;12.80;48.40;;;;;;5057272;28;20032;-80
2022/03/28 00:15:01;;;;;;;21.33;13.13;;;12.30;47.70;;;;;;5076443;28;20029;-80
2022/03/28 00:17:26;;;;;;;25.35;13.48;;;11.80;48.60;;;;;;5095403;28;20038;-79
2022/03/28 00:19:52;;;;;;;23.80;13.38;;;12.20;48.90;;;;;;5095544;28;20024;-79
2022/03/28 00:22:18;;;;;;;24.20;13.60;;;12.10;48.20;;;;;;5095093;28;20119;-80
2022/03/28 00:24:44;;;;;;;25.85;13.52;;;11.40;49.20;;;;;;5079668;28;20025;-80
2022/03/28 00:27:10;;;;;;;20.40;13.00;;;11.60;49.50;;;;;;5057131;28;20028;-79
2022/03/28 00:29:35;;;;;;;21.05;13.23;;;11.50;49.10;;;;;;5073991;28;20052;-80
2022/03/28 00:32:01;;;;;;;19.50;12.70;;;11.00;50.00;;;;;;5056896;28;20027;-80
2022/03/28 00:34:27;;;;;;;21.02;12.27;;;10.90;50.70;;;;;;5086189;28;20028;-79
2022/03/28 00:36:52;;;;;;;25.20;13.05;;;11.40;50.00;;;;;;5073743;28;20028;-81
2022/03/28 00:39:21;;;;;;;23.30;13.50;;;11.10;49.60;;;;;;5095113;28;20024;-80
2022/03/28 00:41:48;;;;;;;21.73;12.23;;;11.60;49.40;;;;;;5076336;28;20386;-80
2022/03/28 00:44:14;;;;;;;22.85;13.63;;;11.20;49.10;;;;;;5076884;28;20020;-80
2022/03/28 00:46:41;;;;;;;22.50;13.40;;;11.60;49.20;;;;;;5094867;28;20024;-79
2022/03/28 00:49:07;;;;;;;22.13;13.40;;;12.00;48.50;;;;;;5076539;28;20110;-80
2022/03/28 00:51:32;;;;;;;22.65;12.90;;;12.30;47.90;;;;;;5092734;28;20024;-80
2022/03/28 00:54:00;;;;;;;23.45;12.63;;;12.40;47.40;;;;;;5056426;28;20043;-79
2022/03/28 00:56:25;;;;;;;21.10;12.90;;;12.60;47.30;;;;;;5056332;28;20040;-80
2022/03/28 00:58:51;;;;;;;20.42;12.07;;;12.00;47.00;;;;;;5074376;28;20025;-79
2022/03/28 01:01:17;;;;;;;20.95;11.77;;;11.20;48.50;;;;;;5059429;28;20051;-80
2022/03/28 01:03:43;;;;;;;25.77;12.48;;;10.70;49.50;;;;;;5074305;28;20532;-79
2022/03/28 01:06:09;;;;;;;23.52;11.93;;;10.30;50.60;;;;;;5056469;28;20032;-80
2022/03/28 01:08:35;;;;;;;19.55;11.82;;;10.40;51.10;;;;;;5074700;28;20028;-80
2022/03/28 01:11:06;;;;;;;25.65;11.18;;;10.80;51.10;;;;;;5093818;28;20040;-79
2022/03/28 01:13:38;;;;;;;23.33;12.13;;;11.00;50.70;;;;;;5075652;28;20024;-79
2022/03/28 01:16:05;;;;;;;22.50;12.77;;;11.00;49.50;;;;;;5076252;28;20023;-79
2022/03/28 01:18:31;;;;;;;21.55;12.55;;;11.50;49.10;;;;;;5076132;28;20020;-79
2022/03/28 01:21:01;;;;;;;20.27;11.73;;;11.60;48.60;;;;;;5093714;28;20446;-79
2022/03/28 01:23:27;;;;;;;;;;;11.70;48.70;;;;;;5090224;28;20497;-81
2022/03/28 01:25:54;;;;;;;21.55;12.13;;;11.80;48.50;;;;;;5075975;28;19904;-79
2022/03/28 01:28:22;;;;;;;23.73;12.05;;;11.10;48.80;;;;;;5075203;28;20072;-79
2022/03/28 01:30:48;;;;;;;21.70;11.75;;;10.60;49.90;;;;;;5035596;28;20076;-80
2022/03/28 01:33:14;;;;;;;22.50;12.20;;;10.20;50.90;;;;;;5036021;28;20017;-80
2022/03/28 01:35:41;;;;;;;22.55;12.93;;;10.20;51.10;;;;;;5040339;28;20043;-80
2022/03/28 01:38:12;;;;;;;20.92;11.98;;;9.80;51.30;;;;;;5073407;28;20455;-79
2022/03/28 01:40:41;;;;;;;24.83;12.25;;;9.70;51.90;;;;;;5073470;28;20044;-79
2022/03/28 01:43:08;;;;;;;23.27;13.15;;;10.10;51.20;;;;;;5055792;28;20162;-80
2022/03/28 01:45:33;;;;;;;25.33;12.50;;;10.30;51.40;;;;;;5051374;28;20160;-79
2022/03/28 01:47:59;;;;;;;26.63;12.75;;;10.60;51.50;;;;;;5053534;28;20104;-79
2022/03/28 01:50:25;;;;;;;20.40;11.45;;;11.00;50.90;;;;;;5053337;28;20040;-80
2022/03/28 01:52:51;;;;;;;23.60;12.82;;;11.30;49.90;;;;;;5035598;28;20032;-79
2022/03/28 01:55:17;;;;;;;19.92;11.40;;;10.80;49.30;;;;;;5053966;28;20028;-80
2022/03/28 01:57:44;;;;;;;23.55;11.75;;;10.40;49.60;;;;;;5073116;28;20025;-79
2022/03/28 02:00:12;;;;;;;23.13;12.07;;;9.90;50.40;;;;;;5073236;28;20032;-80
2022/03/28 02:02:38;;;;;;;25.20;12.48;;;9.30;51.70;;;;;;5054559;28;20059;-80
2022/03/28 02:05:05;;;;;;;22.75;12.93;;;9.00;52.60;;;;;;5072992;28;20111;-79
2022/03/28 02:07:31;;;;;;;23.58;12.35;;;8.80;52.90;;;;;;5073498;28;20391;-79
2022/03/28 02:09:56;;;;;;;26.77;13.25;;;8.60;53.10;;;;;;5055247;28;20483;-79
2022/03/28 02:12:22;;;;;;;24.10;13.18;;;8.70;53.70;;;;;;5060284;28;20123;-78
2022/03/28 02:14:48;;;;;;;30.33;14.27;;;8.70;53.00;;;;;;5035130;28;20036;-80
2022/03/28 02:17:14;;;;;;;24.98;13.50;;;8.40;53.50;;;;;;5052766;28;20025;-79
2022/03/28 02:19:39;;;;;;;23.58;12.30;;;8.30;54.50;;;;;;5052717;28;20427;-79
2022/03/28 02:22:05;;;;;;;24.40;12.23;;;8.30;54.40;;;;;;5066011;28;20029;-79
2022/03/28 02:24:31;;;;;;;24.25;12.50;;;8.80;53.80;;;;;;5073292;28;20044;-79
2022/03/28 02:26:57;;;;;;;28.17;13.25;;;8.70;53.10;;;;;;5077117;28;20099;-79
2022/03/28 02:29:22;;;;;;;27.42;13.15;;;9.50;52.30;;;;;;5040422;28;20072;-79
2022/03/28 02:31:48;;;;;;;24.88;13.73;;;10.10;51.40;;;;;;5039164;28;20040;-79
2022/03/28 02:34:14;;;;;;;25.90;13.82;;;10.50;50.50;;;;;;5056937;28;20032;-80
2022/03/28 02:36:40;;;;;;;23.65;12.68;;;10.60;49.50;;;;;;5039139;28;20025;-79
2022/03/28 02:39:06;;;;;;;21.17;11.43;;;10.10;49.70;;;;;;5055253;28;20020;-79
2022/03/28 02:41:31;;;;;;;21.73;12.52;;;9.60;50.20;;;;;;5058694;28;20502;-78
2022/03/28 02:43:57;;;;;;;20.98;12.30;;;9.80;50.70;;;;;;5076641;28;20154;-78
2022/03/28 02:46:23;;;;;;;22.73;11.90;;;10.00;51.10;;;;;;5059322;28;20040;-78
2022/03/28 02:48:49;;;;;;;25.20;12.88;;;9.70;49.80;;;;;;5044432;28;20021;-79
2022/03/28 02:51:15;;;;;;;24.08;13.57;;;9.20;50.70;;;;;;5038931;28;20502;-79
2022/03/28 02:53:40;;;;;;;23.40;12.23;;;9.40;51.50;;;;;;5038592;28;20028;-79
2022/03/28 02:56:06;;;;;;;23.23;12.85;;;9.90;50.60;;;;;;5056572;28;20486;-79
2022/03/28 02:58:32;;;;;;;22.95;12.73;;;10.00;50.70;;;;;;5057457;28;20029;-79
2022/03/28 03:00:57;;;;;;;22.70;12.75;;;10.20;50.70;;;;;;5038654;28;20116;-79
2022/03/28 03:03:23;;;;;;;22.38;12.50;;;10.40;51.60;;;;;;5038676;28;20083;-79
2022/03/28 03:05:52;;;;;;;25.05;12.77;;;10.70;51.40;;;;;;5058787;28;20071;-79
2022/03/28 03:08:17;;;;;;;21.90;12.52;;;10.70;49.60;;;;;;5038892;28;20072;-78
2022/03/28 03:10:44;;;;;;;25.80;13.02;;;11.00;49.40;;;;;;5038157;28;20609;-78
2022/03/28 03:13:10;;;;;;;21.50;12.43;;;10.70;48.90;;;;;;5056271;28;20049;-79
2022/03/28 03:15:38;;;;;;;22.92;12.75;;;10.90;48.90;;;;;;5062886;28;20507;-78
2022/03/28 03:18:04;;;;;;;26.50;12.38;;;10.20;49.60;;;;;;5076097;28;20098;-78
2022/03/28 03:20:32;;;;;;;25.20;13.07;;;9.50;50.70;;;;;;5076345;28;20090;-79
2022/03/28 03:22:57;;;;;;;25.35;13.10;;;9.50;51.70;;;;;;5039365;28;20056;-79
2022/03/28 03:25:23;;;;;;;23.30;12.75;;;10.00;51.30;;;;;;5042795;28;20116;-79
2022/03/28 03:27:51;;;;;;;23.05;12.65;;;10.30;51.10;;;;;;5060902;28;20360;-79
2022/03/28 03:30:18;;;;;;;22.77;11.50;;;10.00;51.00;;;;;;5038449;28;20043;-78
2022/03/28 03:32:44;;;;;;;18.50;11.13;;;9.90;52.40;;;;;;5059386;28;20028;-79
2022/03/28 03:35:10;;;;;;;19.83;11.07;;;10.40;51.60;;;;;;5056638;28;20442;-79
2022/03/28 03:37:37;;;;;;;22.40;12.10;;;10.70;49.90;;;;;;5075468;28;20467;-79
2022/03/28 03:40:07;;;;;;;26.20;12.38;;;10.00;49.60;;;;;;5057224;28;20025;-80
2022/03/28 03:42:33;;;;;;;25.15;13.43;;;9.70;50.40;;;;;;5055436;28;20361;-78
2022/03/28 03:45:00;;;;;;;24.65;13.38;;;9.30;51.30;;;;;;5037686;28;20029;-78
2022/03/28 03:47:26;;;;;;;24.88;13.13;;;9.10;51.50;;;;;;5037572;28;20467;-78
2022/03/28 03:49:52;;;;;;;26.15;13.68;;;9.20;52.00;;;;;;5073625;28;20036;-80
2022/03/28 03:52:18;;;;;;;26.58;12.63;;;9.40;52.00;;;;;;5037560;28;20479;-79
2022/03/28 03:54:44;;;;;;;26.58;13.05;;;9.90;50.90;;;;;;5047547;28;20024;-80
2022/03/28 03:57:09;;;;;;;28.73;12.25;;;9.70;50.00;;;;;;5068661;28;20122;-78
2022/03/28 03:59:35;;;;;;;23.65;12.52;;;9.00;50.60;;;;;;5054289;28;20491;-78
2022/03/28 04:02:01;;;;;;;26.75;12.93;;;8.60;51.50;;;;;;5049745;28;20032;-79
2022/03/28 04:04:27;;;;;;;26.42;13.25;;;8.30;52.20;;;;;;5054747;28;20027;-78
2022/03/28 04:06:52;;;;;;;27.40;12.90;;;8.40;52.90;;;;;;5049818;28;20017;-78
2022/03/28 04:09:18;;;;;;;26.40;12.60;;;7.90;53.30;;;;;;5055736;28;20475;-77
2022/03/28 04:11:44;;;;;;;25.88;12.35;;;7.70;53.90;;;;;;5067106;28;20056;-79
2022/03/28 04:14:10;;;;;;;25.45;12.82;;;7.60;54.40;;;;;;5041438;28;20027;-79
2022/03/28 04:16:35;;;;;;;23.15;11.77;;;7.40;54.70;;;;;;5037375;28;20029;-79
2022/03/28 04:19:01;;;;;;;23.38;11.30;;;7.60;55.20;;;;;;5037845;28;20021;-80
2022/03/28 04:21:27;;;;;;;20.27;11.38;;;8.00;53.70;;;;;;5061733;28;20360;-79
2022/03/28 04:23:53;;;;;;;22.70;10.93;;;8.40;53.60;;;;;;5059624;28;20017;-80
2022/03/28 04:26:19;;;;;;;22.65;11.55;;;8.80;52.80;;;;;;5048555;28;20464;-78
2022/03/28 04:28:44;;;;;;;23.80;11.35;;;8.70;52.90;;;;;;5054654;28;20140;-79
2022/03/28 04:31:10;;;;;;;20.35;11.50;;;9.20;52.50;;;;;;5060426;28;20041;-79
2022/03/28 04:33:37;;;;;;;17.70;10.75;;;9.70;52.00;;;;;;5069274;28;20012;-77
2022/03/28 04:36:03;;;;;;;19.40;11.45;;;10.00;50.60;;;;;;5064581;28;20031;-79
2022/03/28 04:38:29;;;;;;;19.15;10.88;;;10.40;49.60;;;;;;5054654;28;20036;-78
2022/03/28 04:40:55;;;;;;;23.42;11.15;;;9.90;49.00;;;;;;5051668;28;20020;-78
2022/03/28 04:43:21;;;;;;;21.05;11.38;;;9.30;50.00;;;;;;5067293;28;20047;-79
2022/03/28 04:45:47;;;;;;;24.45;11.68;;;9.00;50.90;;;;;;5053025;28;20020;-80
2022/03/28 04:48:13;;;;;;;23.83;11.55;;;8.60;51.50;;;;;;5054804;28;20082;-79
2022/03/28 04:50:39;;;;;;;20.52;11.30;;;8.30;52.30;;;;;;5050948;28;20025;-79
2022/03/28 04:53:05;;;;;;;21.38;11.40;;;8.40;52.40;;;;;;5065833;28;20036;-80
2022/03/28 04:55:31;;;;;;;19.67;11.05;;;8.70;52.00;;;;;;5055244;28;20032;-80
2022/03/28 04:57:57;;;;;;;19.73;10.40;;;8.60;51.80;;;;;;5035265;28;20380;-78
2022/03/28 05:00:23;;;;;;;21.08;11.10;;;8.50;52.60;;;;;;5051506;28;20032;-78
2022/03/28 05:02:49;;;;;;;20.15;11.15;;;8.20;52.70;;;;;;5040624;28;20107;-78
2022/03/28 05:05:14;;;;;;;21.65;11.25;;;8.00;53.00;;;;;;5044770;28;20029;-80
2022/03/28 05:07:40;;;;;;;22.92;11.80;;;8.80;53.40;;;;;;5055916;28;20032;-79
2022/03/28 05:10:07;;;;;;;29.20;12.93;;;9.30;51.70;;;;;;5057929;28;20044;-80
2022/03/28 05:12:33;;;;;;;20.80;11.65;;;9.80;51.40;;;;;;5053990;28;20013;-79
2022/03/28 05:14:59;;;;;;;25.10;11.77;;;10.30;50.90;;;;;;5053841;28;20082;-79
2022/03/28 05:17:27;;;;;;;21.20;10.98;;;10.70;50.20;;;;;;5053802;28;20018;-78
2022/03/28 05:19:54;;;;;;;20.35;10.98;;;10.90;49.50;;;;;;5053952;28;20021;-79
2022/03/28 05:22:20;;;;;;;20.58;11.27;;;10.80;48.80;;;;;;5069140;28;20028;-79
2022/03/28 05:24:47;;;;;;;25.25;11.70;;;10.50;49.20;;;;;;5073662;28;20530;-79
2022/03/28 05:27:13;;;;;;;21.45;11.00;;;10.20;49.60;;;;;;5073795;28;20051;-79
2022/03/28 05:29:39;;;;;;;23.58;11.10;;;9.70;50.70;;;;;;5065144;28;20044;-78
2022/03/28 05:32:05;;;;;;;22.00;12.02;;;9.20;51.70;;;;;;5073795;28;20024;-79
2022/03/28 05:34:31;;;;;;;28.45;12.48;;;8.90;52.30;;;;;;5072834;28;20035;-79
2022/03/28 05:37:01;;;;;;;24.23;12.75;;;8.70;53.50;;;;;;5075178;28;20020;-79
2022/03/28 05:39:27;;;;;;;23.42;12.85;;;9.30;53.70;;;;;;5089207;28;20024;-78
2022/03/28 05:41:53;;;;;;;23.42;12.23;;;9.80;53.70;;;;;;5076688;28;20028;-79
2022/03/28 05:44:20;;;;;;;28.63;14.07;;;9.80;53.70;;;;;;5073681;28;20047;-79
2022/03/28 05:46:48;;;;;;;26.55;14.23;;;9.60;54.10;;;;;;5055399;28;20052;-80
2022/03/28 05:49:14;;;;;;;21.42;12.45;;;9.80;53.60;;;;;;5055420;28;20111;-79
2022/03/28 05:51:40;;;;;;;21.88;12.55;;;10.00;53.40;;;;;;5055336;28;20127;-79
2022/03/28 05:54:05;;;;;;;21.17;12.02;;;10.20;52.90;;;;;;5072997;28;20023;-79
2022/03/28 05:56:31;;;;;;;22.63;12.15;;;10.70;51.90;;;;;;5073440;28;20065;-79
2022/03/28 05:58:57;;;;;;;23.15;12.60;;;11.00;51.00;;;;;;5054819;28;20090;-80
2022/03/28 06:01:23;;;;;;;21.83;12.00;;;11.50;50.20;;;;;;5072320;28;20025;-80
2022/03/28 06:03:49;;;;;;;20.40;11.13;;;11.50;50.10;;;;;;5055334;28;20025;-80
2022/03/28 06:06:15;;;;;;;27.95;11.38;;;11.70;49.80;;;;;;5073153;28;20033;-79
2022/03/28 06:08:41;;;;;;;18.00;10.82;;;11.90;49.10;;;;;;5055143;28;20045;-80
2022/03/28 06:11:06;;;;;;;21.02;11.27;;;12.00;48.80;;;;;;5055126;28;20115;-80
2022/03/28 06:13:33;;;;;;;20.25;11.73;;;12.30;48.90;;;;;;5054897;28;20020;-79
2022/03/28 06:15:59;;;;;;;23.10;12.00;;;12.50;48.60;;;;;;5072804;28;20028;-79
2022/03/28 06:18:26;;;;;;;20.73;11.38;;;12.70;48.20;;;;;;5073000;28;20166;-79
2022/03/28 06:20:52;;;;;;;23.40;11.52;;;12.90;48.30;;;;;;5072841;28;20031;-79
2022/03/28 06:23:17;;;;;;;21.92;11.25;;;13.20;48.20;;;;;;5072843;28;20036;-79
2022/03/28 06:25:43;;;;;;;21.30;12.18;;;13.40;47.50;;;;;;5072665;28;20047;-80
2022/03/28 06:28:10;;;;;;;22.50;11.40;;;13.40;47.50;;;;;;5054899;28;20130;-79
2022/03/28 06:30:36;;;;;;;20.60;12.20;;;13.40;47.70;;;;;;5054621;28;20032;-80
2022/03/28 06:33:02;;;;;;;20.00;11.10;;;13.40;47.50;;;;;;5073004;28;20025;-80
2022/03/28 06:35:27;;;;;;;19.45;11.75;;;13.40;46.80;;;;;;5072769;28;20433;-80
2022/03/28 06:37:53;;;;;;;24.10;10.88;;;13.70;46.10;;;;;;5054409;28;20535;-80
2022/03/28 06:40:21;;;;;;;16.17;9.80;;;13.90;45.70;;;;;;5055099;28;20074;-79
2022/03/28 06:42:46;;;;;;;17.20;10.45;;;14.00;44.80;;;;;;5072789;28;20024;-80
2022/03/28 06:45:13;;;;;;;20.08;10.98;;;14.10;43.60;;;;;;5072338;28;20033;-80
2022/03/28 06:47:39;;;;;;;19.58;9.90;;;14.30;43.20;;;;;;5054974;28;20051;-80
2022/03/28 06:50:07;;;;;;;16.33;9.27;;;14.70;42.70;;;;;;5054831;28;20479;-79
2022/03/28 06:52:34;;;;;;;17.88;9.30;;;14.90;42.50;;;;;;5054805;28;20428;-80
2022/03/28 06:54:59;;;;;;;15.95;9.50;;;15.10;42.80;;;;;;5072794;28;20028;-80
2022/03/28 06:57:26;;;;;;;17.58;9.80;;;15.20;43.10;;;;;;5072583;28;20375;-80
2022/03/28 06:59:52;;;;;;;17.23;9.88;;;15.20;42.50;;;;;;5072654;28;20471;-80
2022/03/28 07:02:18;;;;;;;15.10;9.02;;;15.30;42.20;;;;;;5054504;28;20052;-80
2022/03/28 07:04:44;;;;;;;14.93;9.25;;;15.00;41.70;;;;;;5072853;28;20071;-80
2022/03/28 07:07:10;;;;;;;17.02;9.77;;;14.40;42.60;;;;;;5054757;28;20017;-80
2022/03/28 07:09:36;;;;;;;14.38;8.43;;;14.10;42.50;;;;;;5054508;28;20021;-80
2022/03/28 07:12:03;;;;;;;19.90;9.23;;;14.10;39.90;;;;;;5057182;28;20032;-80
2022/03/28 07:14:29;;;;;;;17.50;8.38;;;13.70;41.00;;;;;;5058287;28;20025;-80
2022/03/28 07:16:55;;;;;;;21.80;9.68;;;13.70;41.10;;;;;;5058146;28;20375;-80
2022/03/28 07:19:21;;;;;;;15.38;8.98;;;13.40;41.30;;;;;;5058333;28;20050;-80
2022/03/28 07:21:47;;;;;;;17.60;8.40;;;13.50;41.40;;;;;;5058358;28;20025;-80
2022/03/28 07:24:12;;;;;;;14.07;8.15;;;13.70;41.20;;;;;;5075901;28;20016;-80
2022/03/28 07:26:38;;;;;;;15.65;9.05;;;13.80;41.20;;;;;;5076300;28;20024;-81
2022/03/28 07:29:04;;;;;;;16.98;9.20;;;13.30;41.90;;;;;;5076304;28;20037;-80
2022/03/28 07:31:31;;;;;;;14.63;7.85;;;13.60;41.90;;;;;;5058134;28;20131;-80
2022/03/28 07:34:29;;;;;;;14.30;8.52;;;14.80;40.50;;;;;;5076281;28;20107;-80
2022/03/28 07:36:43;;;;;;;22.27;10.02;;;16.10;39.30;;;;;;5075908;28;20033;-81
2022/03/28 07:39:09;;;;;;;19.45;8.80;;;17.20;37.60;;;;;;5058086;28;20028;-81
2022/03/28 07:41:34;;;;;;;15.90;9.23;;;16.30;38.20;;;;;;5075699;28;20012;-80
2022/03/28 07:44:00;;;;;;;16.25;9.70;;;16.80;38.50;;;;;;5075584;28;20038;-81
2022/03/28 07:47:21;;;;;;;;;;;;;;;;;;;;;
2022/03/28 07:50:16;;;;;;;17.33;9.10;;;17.70;37.60;;;;;;5028272;28;20081;-81
2022/03/28 07:52:42;;;;;;;19.63;10.15;;;17.80;36.70;;;;;;5011447;28;20038;-80
2022/03/28 07:55:10;;;;;;;16.30;10.13;;;18.30;36.10;;;;;;5002824;28;20037;-80
2022/03/28 07:57:39;;;;;;;14.57;9.60;;;19.50;35.70;;;;;;4998897;28;20049;-81
2022/03/28 08:00:14;;;;;;;19.15;9.48;;;20.60;34.80;;;;;;5000884;28;20022;-81
2022/03/28 08:02:41;;;;;;;15.70;9.45;;;21.40;33.30;;;;;;5002178;28;20045;-81
2022/03/28 08:05:08;;;;;;;14.48;9.00;;;21.60;32.70;;;;;;5017354;28;20389;-82
2022/03/28 08:07:34;;;;;;;12.85;8.48;;;20.10;33.50;;;;;;5015651;28;20030;-82
2022/03/28 08:10:01;;;;;;;15.50;8.60;;;19.30;34.80;;;;;;4998994;28;20085;-82
2022/03/28 08:12:28;;;;;;;16.88;8.80;;;20.40;34.10;;;;;;4998681;28;20033;-82
2022/03/28 08:14:54;;;;;;;15.55;9.00;;;21.30;33.30;;;;;;4998021;28;20026;-82
2022/03/28 08:17:20;;;;;;;21.17;10.80;;;22.20;32.90;;;;;;5013709;28;20026;-82
2022/03/28 08:19:46;;;;;;;16.60;9.38;;;23.70;32.80;;;;;;5013486;28;20539;-81
2022/03/28 08:22:13;;;;;;;15.30;9.57;;;24.50;31.10;;;;;;4995828;28;20129;-82
2022/03/28 08:24:39;;;;;;;17.02;9.77;;;25.80;32.30;;;;;;5012883;28;20026;-82
2022/03/28 08:27:04;;;;;;;16.85;8.57;;;27.50;31.60;;;;;;5013066;28;20033;-82
2022/03/28 08:29:32;;;;;;;17.60;8.02;;;28.40;30.70;;;;;;5012481;28;20050;-80
2022/03/28 08:32:02;;;;;;;14.63;8.25;;;29.00;29.90;;;;;;5013383;28;20091;-80
2022/03/28 08:34:28;;;;;;;14.40;8.18;;;27.50;29.70;;;;;;4993080;28;20643;-82
2022/03/28 08:36:55;;;;;;;28.85;9.38;;;25.70;30.00;;;;;;5013031;28;20615;-82
2022/03/28 08:39:21;;;;;;;27.02;8.65;;;24.80;30.40;;;;;;5012893;28;20499;-82
2022/03/28 08:41:48;;;;;;;17.55;9.25;;;24.60;31.10;;;;;;5012859;28;20030;-82
2022/03/28 08:44:22;;;;;;;15.10;9.02;;;24.20;31.10;;;;;;5013414;28;20033;-82
2022/03/28 08:46:48;;;;;;;15.88;9.40;;;25.40;32.00;;;;;;4996940;28;20443;-82
2022/03/28 08:49:18;;;;;;;14.57;8.60;;;25.30;30.20;;;;;;5013166;28;20472;-82
2022/03/28 08:51:44;;;;;;;16.52;9.20;;;24.50;31.70;;;;;;4997299;28;20570;-82
2022/03/28 08:54:10;;;;;;;18.67;9.25;;;24.40;31.60;;;;;;4998608;28;20408;-82
2022/03/28 08:56:36;;;;;;;16.65;8.95;;;24.20;31.50;;;;;;4998600;28;20488;-82
2022/03/28 08:59:03;;;;;;;16.42;9.40;;;23.50;31.70;;;;;;4998503;28;20184;-82
2022/03/28 09:01:29;;;;;;;15.93;9.40;;;23.40;32.90;;;;;;4996414;28;20030;-82
2022/03/28 09:03:55;;;;;;;16.20;9.45;;;24.40;31.80;;;;;;4996138;28;20026;-82
2022/03/28 09:06:38;;;;;;;16.40;9.07;;;25.10;31.90;;;;;;4995703;28;20025;-83
2022/03/28 09:09:18;;;;;;;18.38;9.65;;;25.50;30.90;;;;;;5012529;28;20030;-82
2022/03/28 09:11:54;;;;;;;17.20;9.48;;;25.90;31.70;;;;;;4995798;28;20077;-82
2022/03/28 09:14:28;;;;;;;15.93;9.57;;;26.90;31.20;;;;;;4995914;28;20022;-80
2022/03/28 09:17:06;;;;;;;18.70;9.63;;;27.60;30.60;;;;;;5012219;28;20400;-82
2022/03/28 09:19:55;;;;;;;13.60;9.20;;;27.10;30.90;;;;;;4995726;28;20018;-82
2022/03/28 09:22:31;;;;;;;22.45;9.98;;;26.90;31.10;;;;;;5012400;28;20711;-81
2022/03/28 09:25:06;;;;;;;17.33;8.98;;;28.30;30.90;;;;;;5012294;28;20532;-83
2022/03/28 09:27:39;;;;;;;15.68;9.18;;;29.40;31.50;;;;;;4995623;28;20500;-84
2022/03/28 09:30:08;;;;;;;19.65;9.50;;;30.80;30.00;;;;;;4995869;28;20425;-82
2022/03/28 09:32:39;;;;;;;15.25;8.93;;;32.00;30.90;;;;;;5012351;28;20034;-81
2022/03/28 09:35:22;;;;;;;15.75;9.43;;;32.60;29.70;;;;;;5011892;28;20026;-81
2022/03/28 09:38:01;;;;;;;15.27;9.13;;;33.30;30.90;;;;;;5011974;28;20041;-81
2022/03/28 09:40:31;;;;;;;13.75;8.93;;;33.40;29.40;;;;;;4995654;28;20026;-82
2022/03/28 09:42:58;;;;;;;17.17;9.40;;;31.50;29.50;;;;;;4995380;28;20026;-82
2022/03/28 09:45:27;;;;;;;16.00;9.70;;;29.80;29.80;;;;;;5011792;28;20037;-81
2022/03/28 09:47:55;;;;;;;15.60;9.18;;;28.70;30.30;;;;;;4995775;28;20029;-80
2022/03/28 09:51:00;;;;;;;14.85;8.38;;;28.70;29.90;;;;;;4995329;28;20041;-81
2022/03/28 09:53:31;;;;;;;17.75;9.30;;;28.00;30.60;;;;;;4995439;28;20033;-81
2022/03/28 09:56:02;;;;;;;21.00;8.90;;;28.20;30.60;;;;;;4995048;28;20104;-80
2022/03/28 09:58:59;;;;;;;18.15;8.82;;;28.60;30.20;;;;;;4995371;28;20093;-82
2022/03/28 10:01:32;;;;;;;18.38;9.20;;;28.80;30.60;;;;;;4995411;28;20088;-82
2022/03/28 10:04:05;;;;;;;13.98;8.63;;;29.30;30.30;;;;;;4995292;28;20440;-81
2022/03/28 10:06:32;;;;;;;12.18;8.70;;;29.40;29.80;;;;;;4995099;28;20029;-81
2022/03/28 10:08:59;;;;;;;16.50;8.68;;;29.20;30.00;;;;;;5011641;28;20089;-82
2022/03/28 10:11:26;;;;;;;13.70;8.35;;;28.50;30.10;;;;;;4995069;28;20137;-81
2022/03/28 10:13:52;;;;;;;17.27;8.38;;;28.40;30.20;;;;;;4994942;28;20022;-82
2022/03/28 10:16:18;;;;;;;15.23;8.38;;;29.40;30.30;;;;;;4995305;28;20037;-82
2022/03/28 10:18:45;;;;;;;14.98;8.85;;;29.90;30.40;;;;;;4994848;28;20056;-82
2022/03/28 10:21:19;;;;;;;16.98;8.60;;;30.70;30.20;;;;;;4994957;28;20033;-81
2022/03/28 10:23:49;;;;;;;16.40;8.82;;;29.80;29.80;;;;;;4994998;28;20073;-81
2022/03/28 10:26:18;;;;;;;19.73;9.23;;;30.20;30.90;;;;;;4995015;28;20033;-81
2022/03/28 10:29:00;;;;;;;14.85;8.85;;;29.60;29.80;;;;;;4994941;28;20066;-81
2022/03/28 10:31:26;;;;;;;19.27;8.70;;;27.90;30.40;;;;;;4995093;28;20041;-81
2022/03/28 10:33:54;;;;;;;14.48;9.10;;;27.40;31.30;;;;;;4994853;28;20403;-82
2022/03/28 10:36:28;;;;;;;13.98;8.65;;;28.10;31.10;;;;;;4995302;28;20061;-82
2022/03/28 10:38:57;;;;;;;18.98;8.80;;;29.70;30.80;;;;;;4995008;28;20516;-82
2022/03/28 10:41:26;;;;;;;14.38;8.40;;;30.80;30.30;;;;;;5011580;28;20053;-81
2022/03/28 10:43:51;;;;;;;16.55;8.77;;;32.00;30.20;;;;;;5011410;28;20409;-82
2022/03/28 10:46:19;;;;;;;12.30;8.35;;;33.20;29.90;;;;;;4995476;28;20626;-82
2022/03/28 10:48:48;;;;;;;17.65;9.00;;;33.70;29.60;;;;;;5015325;28;20077;-82
2022/03/28 10:51:16;;;;;;;15.10;8.00;;;33.50;29.80;;;;;;4998591;28;20056;-82
2022/03/28 10:53:51;;;;;;;13.20;8.52;;;34.50;29.90;;;;;;4998642;28;20026;-82
2022/03/28 10:56:20;;;;;;;13.15;8.30;;;34.20;29.90;;;;;;5053926;28;20037;-82
2022/03/28 10:58:53;;;;;;;13.60;8.52;;;35.10;29.40;;;;;;5058578;28;20112;-82
2022/03/28 11:01:33;;;;;;;12.73;8.10;;;36.20;30.10;;;;;;5076888;28;20085;-83
2022/03/28 11:04:05;;;;;;;;;;;36.10;29.20;;;;;;5073127;28;20028;-82
2022/03/28 11:06:53;;;;;;;12.70;7.38;;;34.60;30.00;;;;;;5076696;28;19927;-83
2022/03/28 11:10:13;;;;;;;15.75;8.52;;;34.60;30.00;;;;;;5058696;28;20090;-82
2022/03/28 11:12:42;;;;;;;14.93;7.90;;;33.70;29.60;;;;;;4975699;28;20046;-81
2022/03/28 11:15:21;;;;;;;13.05;8.23;;;30.10;30.50;;;;;;4959536;28;20030;-82
2022/03/28 11:18:03;;;;;;;18.48;7.80;;;27.10;32.10;;;;;;4975444;28;20154;-81
2022/03/28 11:20:51;;;;;;;18.08;8.05;;;25.90;33.30;;;;;;4975841;28;20038;-81
2022/03/28 11:23:18;;;;;;;14.02;7.78;;;25.20;33.20;;;;;;4975532;28;20037;-81
2022/03/28 11:25:51;;;;;;;14.73;8.10;;;25.00;33.60;;;;;;4959680;28;20127;-81
2022/03/28 11:28:22;;;;;;;11.95;7.78;;;24.10;34.40;;;;;;4975489;28;20039;-81
2022/03/28 11:31:03;;;;;;;13.25;7.53;;;24.40;34.60;;;;;;4975592;28;20049;-81
2022/03/28 11:33:32;;;;;;;13.90;7.88;;;24.80;34.10;;;;;;4959393;28;20023;-81
2022/03/28 11:36:05;;;;;;;12.75;7.80;;;25.10;34.50;;;;;;4958859;28;20580;-81
2022/03/28 11:38:33;;;;;;;12.57;8.18;;;25.60;35.60;;;;;;4959214;28;20022;-81
2022/03/28 11:41:01;;;;;;;13.95;7.90;;;26.20;34.70;;;;;;4974962;28;20050;-80
2022/03/28 11:43:28;;;;;;;17.98;8.75;;;26.90;33.70;;;;;;4959064;28;20495;-82
2022/03/28 11:45:54;;;;;;;43.47;9.45;;;26.40;33.30;;;;;;4975226;28;20054;-81
2022/03/28 11:48:21;;;;;;;14.95;8.68;;;26.20;33.30;;;;;;5032450;28;20032;-81
2022/03/28 11:50:47;;;;;;;14.80;8.50;;;26.20;33.30;;;;;;5057967;28;20052;-81
2022/03/28 11:53:15;;;;;;;18.20;8.60;;;26.50;34.10;;;;;;5076087;28;20059;-81
2022/03/28 11:55:48;;;;;;;14.23;8.55;;;27.10;33.40;;;;;;5075576;28;20104;-82
2022/03/28 11:58:19;;;;;;;14.55;8.90;;;25.90;33.50;;;;;;5057475;28;20025;-82
2022/03/28 12:00:46;;;;;;;;;;;25.20;34.00;;;;;;5058306;28;20506;-81
2022/03/28 12:03:13;;;;;;;15.45;9.38;;;24.90;34.00;;;;;;5075615;28;19905;-81
2022/03/28 12:05:40;;;;;;;15.02;8.40;;;25.20;34.00;;;;;;5075765;28;20032;-81
2022/03/28 12:08:13;;;;;;;16.35;9.23;;;25.60;34.10;;;;;;5057745;28;20024;-80
2022/03/28 12:10:40;;;;;;;20.00;8.88;;;25.90;34.40;;;;;;5057164;28;20036;-81
2022/03/28 12:13:07;;;;;;;16.20;8.50;;;26.40;34.40;;;;;;5075263;28;20367;-82
2022/03/28 12:15:46;;;;;;;16.38;7.60;;;26.70;34.40;;;;;;5076173;28;20398;-81
2022/03/28 12:18:13;;;;;;;16.25;9.00;;;27.10;34.50;;;;;;5075271;28;20028;-81
2022/03/28 12:20:44;;;;;;;13.50;8.18;;;27.10;34.00;;;;;;5057523;28;20028;-81
2022/03/28 12:23:13;;;;;;;14.68;8.52;;;26.60;33.80;;;;;;5057208;28;20056;-82
2022/03/28 12:25:41;;;;;;;13.18;8.40;;;26.50;34.20;;;;;;5057342;28;20055;-82
2022/03/28 12:28:16;;;;;;;14.65;8.77;;;26.80;33.60;;;;;;5057028;28;20471;-82
2022/03/28 12:30:47;;;;;;;14.40;7.93;;;27.20;33.70;;;;;;5057341;28;20513;-82
2022/03/28 12:33:26;;;;;;;10.50;5.93;;;27.30;34.20;;;;;;5057266;28;20021;-81
2022/03/28 12:36:00;;;;;;;14.55;6.53;;;27.00;34.50;;;;;;5053273;28;20031;-82
2022/03/28 12:38:31;;;;;;;12.75;6.10;;;27.10;34.60;;;;;;5057155;28;20395;-81
2022/03/28 12:41:01;;;;;;;12.90;6.05;;;27.20;34.90;;;;;;5052206;28;20021;-81